sensor_id;sensor_type;location;lat;lon;timestamp;temperature;humidity
27506;DHT22;14939;43.596;1.320;2022-10-16T00:01:24;16.30;99.90
27506;DHT22;14939;43.596;1.320;2022-10-16T00:03:51;16.30;99.90
27506;DHT22;14939;43.596;1.320;2022-10-16T00:06:18;16.40;99.90
27506;DHT22;14939;43.596;1.320;2022-10-16T00:08:45;16.40;99.90
27506;DHT22;14939;43.596;1.320;2022-10-16T00:11:14;16.40;99.90
27506;DHT22;14939;43.596;1.320;2022-10-16T00:13:41;16.40;99.90
27506;DHT22;14939;43.596;1.320;2022-10-16T00:16:08;16.40;99.90
27506;DHT22;14939;43.596;1.320;2022-10-16T00:18:34;16.50;99.90
27506;DHT22;14939;43.596;1.320;2022-10-16T00:21:05;16.50;99.90
27506;DHT22;14939;43.596;1.320;2022-10-16T00:23:31;16.50;99.90
27506;DHT22;14939;43.596;1.320;2022-10-16T00:25:59;16.50;99.90
27506;DHT22;14939;43.596;1.320;2022-10-16T00:28:25;16.50;99.90
27506;DHT22;14939;43.596;1.320;2022-10-16T00:30:51;16.50;99.90
27506;DHT22;14939;43.596;1.320;2022-10-16T00:33:17;16.50;99.90
27506;DHT22;14939;43.596;1.320;2022-10-16T00:35:43;16.60;99.90
27506;DHT22;14939;43.596;1.320;2022-10-16T00:38:09;16.60;99.90
27506;DHT22;14939;43.596;1.320;2022-10-16T00:40:35;16.60;99.90
27506;DHT22;14939;43.596;1.320;2022-10-16T00:43:00;16.70;99.90
27506;DHT22;14939;43.596;1.320;2022-10-16T00:45:26;16.70;99.90
27506;DHT22;14939;43.596;1.320;2022-10-16T00:47:54;16.70;99.90
27506;DHT22;14939;43.596;1.320;2022-10-16T00:50:28;16.70;99.90
27506;DHT22;14939;43.596;1.320;2022-10-16T00:52:56;16.80;99.90
27506;DHT22;14939;43.596;1.320;2022-10-16T00:55:22;16.80;99.90
27506;DHT22;14939;43.596;1.320;2022-10-16T00:57:49;16.90;99.90
27506;DHT22;14939;43.596;1.320;2022-10-16T01:00:21;16.90;99.90
27506;DHT22;14939;43.596;1.320;2022-10-16T01:02:59;16.90;99.90
27506;DHT22;14939;43.596;1.320;2022-10-16T01:05:47;16.80;99.90
27506;DHT22;14939;43.596;1.320;2022-10-16T01:08:29;16.90;99.90
27506;DHT22;14939;43.596;1.320;2022-10-16T01:11:22;16.90;99.90
27506;DHT22;14939;43.596;1.320;2022-10-16T01:13:55;16.90;99.90
27506;DHT22;14939;43.596;1.320;2022-10-16T01:16:48;17.00;99.90
27506;DHT22;14939;43.596;1.320;2022-10-16T01:19:40;17.00;99.90
27506;DHT22;14939;43.596;1.320;2022-10-16T01:22:09;17.10;99.90
27506;DHT22;14939;43.596;1.320;2022-10-16T01:24:45;17.10;99.90
27506;DHT22;14939;43.596;1.320;2022-10-16T01:30:02;17.10;99.90
27506;DHT22;14939;43.596;1.320;2022-10-16T01:33:19;17.10;99.90
27506;DHT22;14939;43.596;1.320;2022-10-16T01:35:54;17.20;99.90
27506;DHT22;14939;43.596;1.320;2022-10-16T01:38:30;17.20;99.90
27506;DHT22;14939;43.596;1.320;2022-10-16T01:41:10;17.20;99.90
27506;DHT22;14939;43.596;1.320;2022-10-16T01:43:45;17.20;99.90
27506;DHT22;14939;43.596;1.320;2022-10-16T01:46:13;17.20;99.90
27506;DHT22;14939;43.596;1.320;2022-10-16T01:48:39;17.20;99.90
27506;DHT22;14939;43.596;1.320;2022-10-16T01:51:10;17.20;99.90
27506;DHT22;14939;43.596;1.320;2022-10-16T01:53:36;17.20;99.90
27506;DHT22;14939;43.596;1.320;2022-10-16T01:56:05;17.20;99.90
27506;DHT22;14939;43.596;1.320;2022-10-16T01:58:36;17.20;99.90
27506;DHT22;14939;43.596;1.320;2022-10-16T02:01:03;17.10;99.90
27506;DHT22;14939;43.596;1.320;2022-10-16T02:03:30;17.10;99.90
27506;DHT22;14939;43.596;1.320;2022-10-16T02:05:58;17.10;99.90
27506;DHT22;14939;43.596;1.320;2022-10-16T02:08:25;17.00;99.90
27506;DHT22;14939;43.596;1.320;2022-10-16T02:10:57;17.00;99.90
27506;DHT22;14939;43.596;1.320;2022-10-16T02:13:28;16.90;99.90
27506;DHT22;14939;43.596;1.320;2022-10-16T02:15:55;16.90;99.90
27506;DHT22;14939;43.596;1.320;2022-10-16T02:18:21;16.90;99.90
27506;DHT22;14939;43.596;1.320;2022-10-16T02:21:04;16.90;99.90
27506;DHT22;14939;43.596;1.320;2022-10-16T02:23:35;16.90;99.90
27506;DHT22;14939;43.596;1.320;2022-10-16T02:26:06;16.80;99.90
27506;DHT22;14939;43.596;1.320;2022-10-16T02:28:44;16.80;99.90
27506;DHT22;14939;43.596;1.320;2022-10-16T02:31:12;16.70;99.90
27506;DHT22;14939;43.596;1.320;2022-10-16T02:33:42;16.70;99.90
27506;DHT22;14939;43.596;1.320;2022-10-16T02:36:09;16.70;99.90
27506;DHT22;14939;43.596;1.320;2022-10-16T02:38:36;16.70;99.90
27506;DHT22;14939;43.596;1.320;2022-10-16T02:41:02;16.60;99.90
27506;DHT22;14939;43.596;1.320;2022-10-16T02:43:28;16.60;99.90
27506;DHT22;14939;43.596;1.320;2022-10-16T02:45:55;16.60;99.90
27506;DHT22;14939;43.596;1.320;2022-10-16T02:48:21;16.60;99.90
27506;DHT22;14939;43.596;1.320;2022-10-16T02:50:46;16.60;99.90
27506;DHT22;14939;43.596;1.320;2022-10-16T02:53:12;16.60;99.90
27506;DHT22;14939;43.596;1.320;2022-10-16T02:55:38;16.50;99.90
27506;DHT22;14939;43.596;1.320;2022-10-16T02:58:03;16.50;99.90
27506;DHT22;14939;43.596;1.320;2022-10-16T03:00:29;16.50;99.90
27506;DHT22;14939;43.596;1.320;2022-10-16T03:02:54;16.40;99.90
27506;DHT22;14939;43.596;1.320;2022-10-16T03:05:20;16.40;99.90
27506;DHT22;14939;43.596;1.320;2022-10-16T03:07:46;16.40;99.90
27506;DHT22;14939;43.596;1.320;2022-10-16T03:10:11;16.40;99.90
27506;DHT22;14939;43.596;1.320;2022-10-16T03:12:37;16.40;99.90
27506;DHT22;14939;43.596;1.320;2022-10-16T03:15:03;16.40;99.90
27506;DHT22;14939;43.596;1.320;2022-10-16T03:17:29;16.50;99.90
27506;DHT22;14939;43.596;1.320;2022-10-16T03:19:55;16.50;99.90
27506;DHT22;14939;43.596;1.320;2022-10-16T03:22:20;16.40;99.90
27506;DHT22;14939;43.596;1.320;2022-10-16T03:24:46;16.50;99.90
27506;DHT22;14939;43.596;1.320;2022-10-16T03:27:12;16.40;99.90
27506;DHT22;14939;43.596;1.320;2022-10-16T03:29:37;16.50;99.90
27506;DHT22;14939;43.596;1.320;2022-10-16T03:32:03;16.40;99.90
27506;DHT22;14939;43.596;1.320;2022-10-16T03:34:29;16.50;99.90
27506;DHT22;14939;43.596;1.320;2022-10-16T03:36:55;16.50;99.90
27506;DHT22;14939;43.596;1.320;2022-10-16T03:39:20;16.60;99.90
27506;DHT22;14939;43.596;1.320;2022-10-16T03:41:46;16.60;99.90
27506;DHT22;14939;43.596;1.320;2022-10-16T03:44:12;16.70;99.90
27506;DHT22;14939;43.596;1.320;2022-10-16T03:46:38;16.70;99.90
27506;DHT22;14939;43.596;1.320;2022-10-16T03:49:04;16.80;99.90
27506;DHT22;14939;43.596;1.320;2022-10-16T03:51:29;16.80;99.90
27506;DHT22;14939;43.596;1.320;2022-10-16T03:53:55;16.80;99.90
27506;DHT22;14939;43.596;1.320;2022-10-16T03:56:21;16.90;99.90
27506;DHT22;14939;43.596;1.320;2022-10-16T03:58:46;16.90;99.90
27506;DHT22;14939;43.596;1.320;2022-10-16T04:01:12;16.90;99.90
27506;DHT22;14939;43.596;1.320;2022-10-16T04:03:38;17.00;99.90
27506;DHT22;14939;43.596;1.320;2022-10-16T04:06:03;17.00;99.90
27506;DHT22;14939;43.596;1.320;2022-10-16T04:08:29;17.00;99.90
27506;DHT22;14939;43.596;1.320;2022-10-16T04:10:55;17.10;99.90
27506;DHT22;14939;43.596;1.320;2022-10-16T04:13:20;17.10;99.90
27506;DHT22;14939;43.596;1.320;2022-10-16T04:15:46;17.10;99.90
27506;DHT22;14939;43.596;1.320;2022-10-16T04:18:12;17.20;99.90
27506;DHT22;14939;43.596;1.320;2022-10-16T04:20:37;17.20;99.90
27506;DHT22;14939;43.596;1.320;2022-10-16T04:23:03;17.20;99.90
27506;DHT22;14939;43.596;1.320;2022-10-16T04:25:30;17.20;99.90
27506;DHT22;14939;43.596;1.320;2022-10-16T04:27:56;17.10;99.90
27506;DHT22;14939;43.596;1.320;2022-10-16T04:30:22;17.20;99.90
27506;DHT22;14939;43.596;1.320;2022-10-16T04:32:49;17.20;99.90
27506;DHT22;14939;43.596;1.320;2022-10-16T04:35:16;17.20;99.90
27506;DHT22;14939;43.596;1.320;2022-10-16T04:37:42;17.30;99.90
27506;DHT22;14939;43.596;1.320;2022-10-16T04:40:08;17.20;99.90
27506;DHT22;14939;43.596;1.320;2022-10-16T04:42:33;17.30;99.90
27506;DHT22;14939;43.596;1.320;2022-10-16T04:44:59;17.40;99.90
27506;DHT22;14939;43.596;1.320;2022-10-16T04:47:24;17.40;99.90
27506;DHT22;14939;43.596;1.320;2022-10-16T04:49:50;17.30;99.90
27506;DHT22;14939;43.596;1.320;2022-10-16T04:52:16;17.40;99.90
27506;DHT22;14939;43.596;1.320;2022-10-16T04:54:42;17.40;99.90
27506;DHT22;14939;43.596;1.320;2022-10-16T04:57:10;17.40;99.90
27506;DHT22;14939;43.596;1.320;2022-10-16T04:59:36;17.40;99.90
27506;DHT22;14939;43.596;1.320;2022-10-16T05:02:02;17.40;99.90
27506;DHT22;14939;43.596;1.320;2022-10-16T05:04:28;17.40;99.90
27506;DHT22;14939;43.596;1.320;2022-10-16T05:06:53;17.40;99.90
27506;DHT22;14939;43.596;1.320;2022-10-16T05:09:19;17.40;99.90
27506;DHT22;14939;43.596;1.320;2022-10-16T05:11:45;17.40;99.90
27506;DHT22;14939;43.596;1.320;2022-10-16T05:14:11;17.40;99.90
27506;DHT22;14939;43.596;1.320;2022-10-16T05:16:37;17.40;99.90
27506;DHT22;14939;43.596;1.320;2022-10-16T05:19:02;17.40;99.90
27506;DHT22;14939;43.596;1.320;2022-10-16T05:21:28;17.40;99.90
27506;DHT22;14939;43.596;1.320;2022-10-16T05:23:54;17.40;99.90
27506;DHT22;14939;43.596;1.320;2022-10-16T05:26:20;17.50;99.90
27506;DHT22;14939;43.596;1.320;2022-10-16T05:28:46;17.50;99.90
27506;DHT22;14939;43.596;1.320;2022-10-16T05:31:12;17.40;99.90
27506;DHT22;14939;43.596;1.320;2022-10-16T05:33:37;17.50;99.90
27506;DHT22;14939;43.596;1.320;2022-10-16T05:36:05;17.50;99.90
27506;DHT22;14939;43.596;1.320;2022-10-16T05:38:31;17.50;99.90
27506;DHT22;14939;43.596;1.320;2022-10-16T05:40:57;17.50;99.90
27506;DHT22;14939;43.596;1.320;2022-10-16T05:43:23;17.50;99.90
27506;DHT22;14939;43.596;1.320;2022-10-16T05:46:03;17.50;99.90
27506;DHT22;14939;43.596;1.320;2022-10-16T05:48:30;17.50;99.90
27506;DHT22;14939;43.596;1.320;2022-10-16T05:51:07;17.60;99.90
27506;DHT22;14939;43.596;1.320;2022-10-16T05:53:36;17.60;99.90
27506;DHT22;14939;43.596;1.320;2022-10-16T05:56:02;17.60;99.90
27506;DHT22;14939;43.596;1.320;2022-10-16T05:58:30;17.60;99.90
27506;DHT22;14939;43.596;1.320;2022-10-16T06:01:05;17.70;99.90
27506;DHT22;14939;43.596;1.320;2022-10-16T06:03:33;17.60;99.90
27506;DHT22;14939;43.596;1.320;2022-10-16T06:05:59;17.60;99.90
27506;DHT22;14939;43.596;1.320;2022-10-16T06:08:25;17.60;99.90
27506;DHT22;14939;43.596;1.320;2022-10-16T06:11:04;17.70;99.90
27506;DHT22;14939;43.596;1.320;2022-10-16T06:13:31;17.80;99.90
27506;DHT22;14939;43.596;1.320;2022-10-16T06:15:58;17.80;99.90
27506;DHT22;14939;43.596;1.320;2022-10-16T06:18:25;17.70;99.90
27506;DHT22;14939;43.596;1.320;2022-10-16T06:20:50;17.80;99.90
27506;DHT22;14939;43.596;1.320;2022-10-16T06:23:16;17.80;99.90
27506;DHT22;14939;43.596;1.320;2022-10-16T06:25:42;17.70;99.90
27506;DHT22;14939;43.596;1.320;2022-10-16T06:28:07;17.90;99.90
27506;DHT22;14939;43.596;1.320;2022-10-16T06:30:33;17.90;99.90
27506;DHT22;14939;43.596;1.320;2022-10-16T06:32:59;17.90;99.90
27506;DHT22;14939;43.596;1.320;2022-10-16T06:35:24;18.00;99.90
27506;DHT22;14939;43.596;1.320;2022-10-16T06:37:52;18.10;99.90
27506;DHT22;14939;43.596;1.320;2022-10-16T06:40:17;18.10;99.90
27506;DHT22;14939;43.596;1.320;2022-10-16T06:42:43;18.10;99.90
27506;DHT22;14939;43.596;1.320;2022-10-16T06:45:09;18.10;99.90
27506;DHT22;14939;43.596;1.320;2022-10-16T06:47:35;18.10;99.90
27506;DHT22;14939;43.596;1.320;2022-10-16T06:50:00;18.10;99.90
27506;DHT22;14939;43.596;1.320;2022-10-16T06:52:28;18.10;99.90
27506;DHT22;14939;43.596;1.320;2022-10-16T06:54:53;18.20;99.90
27506;DHT22;14939;43.596;1.320;2022-10-16T06:57:19;18.20;99.90
27506;DHT22;14939;43.596;1.320;2022-10-16T06:59:45;18.20;99.90
27506;DHT22;14939;43.596;1.320;2022-10-16T07:02:10;18.20;99.90
27506;DHT22;14939;43.596;1.320;2022-10-16T07:04:36;18.30;99.90
27506;DHT22;14939;43.596;1.320;2022-10-16T07:07:02;18.30;99.90
27506;DHT22;14939;43.596;1.320;2022-10-16T07:09:28;18.30;99.90
27506;DHT22;14939;43.596;1.320;2022-10-16T07:11:53;18.40;99.90
27506;DHT22;14939;43.596;1.320;2022-10-16T07:14:21;18.40;99.90
27506;DHT22;14939;43.596;1.320;2022-10-16T07:16:47;18.40;99.90
27506;DHT22;14939;43.596;1.320;2022-10-16T07:19:14;18.40;99.90
27506;DHT22;14939;43.596;1.320;2022-10-16T07:21:41;18.40;99.90
27506;DHT22;14939;43.596;1.320;2022-10-16T07:24:11;18.50;99.90
27506;DHT22;14939;43.596;1.320;2022-10-16T07:26:38;18.40;99.90
27506;DHT22;14939;43.596;1.320;2022-10-16T07:29:06;18.50;99.90
27506;DHT22;14939;43.596;1.320;2022-10-16T07:31:32;18.40;99.90
27506;DHT22;14939;43.596;1.320;2022-10-16T07:33:59;18.50;99.90
27506;DHT22;14939;43.596;1.320;2022-10-16T07:36:25;18.60;99.90
27506;DHT22;14939;43.596;1.320;2022-10-16T07:38:51;18.60;99.90
27506;DHT22;14939;43.596;1.320;2022-10-16T07:41:18;18.60;99.90
27506;DHT22;14939;43.596;1.320;2022-10-16T07:43:48;18.70;99.90
27506;DHT22;14939;43.596;1.320;2022-10-16T07:46:15;18.70;99.90
27506;DHT22;14939;43.596;1.320;2022-10-16T07:48:42;18.70;99.90
27506;DHT22;14939;43.596;1.320;2022-10-16T07:51:11;18.80;99.90
27506;DHT22;14939;43.596;1.320;2022-10-16T07:53:37;18.80;99.90
27506;DHT22;14939;43.596;1.320;2022-10-16T07:56:05;18.90;99.90
27506;DHT22;14939;43.596;1.320;2022-10-16T07:58:32;18.80;99.90
27506;DHT22;14939;43.596;1.320;2022-10-16T08:00:58;18.80;99.90
27506;DHT22;14939;43.596;1.320;2022-10-16T08:03:24;18.90;99.90
27506;DHT22;14939;43.596;1.320;2022-10-16T08:05:50;18.90;99.90
27506;DHT22;14939;43.596;1.320;2022-10-16T08:08:17;18.90;99.90
27506;DHT22;14939;43.596;1.320;2022-10-16T08:10:44;18.90;99.90
27506;DHT22;14939;43.596;1.320;2022-10-16T08:13:10;19.10;99.90
27506;DHT22;14939;43.596;1.320;2022-10-16T08:15:36;19.20;99.90
27506;DHT22;14939;43.596;1.320;2022-10-16T08:18:03;19.40;99.90
27506;DHT22;14939;43.596;1.320;2022-10-16T08:20:30;19.50;99.90
27506;DHT22;14939;43.596;1.320;2022-10-16T08:22:57;19.80;99.90
27506;DHT22;14939;43.596;1.320;2022-10-16T08:25:23;19.80;99.90
27506;DHT22;14939;43.596;1.320;2022-10-16T08:27:50;19.90;99.90
27506;DHT22;14939;43.596;1.320;2022-10-16T08:30:17;19.90;99.90
27506;DHT22;14939;43.596;1.320;2022-10-16T08:32:43;20.10;99.90
27506;DHT22;14939;43.596;1.320;2022-10-16T08:35:12;20.20;99.90
27506;DHT22;14939;43.596;1.320;2022-10-16T08:37:38;20.10;99.90
27506;DHT22;14939;43.596;1.320;2022-10-16T08:40:06;20.10;99.90
27506;DHT22;14939;43.596;1.320;2022-10-16T08:42:51;20.10;99.90
27506;DHT22;14939;43.596;1.320;2022-10-16T08:48:40;20.20;99.90
27506;DHT22;14939;43.596;1.320;2022-10-16T08:51:11;20.20;99.90
27506;DHT22;14939;43.596;1.320;2022-10-16T08:53:54;20.30;99.90
27506;DHT22;14939;43.596;1.320;2022-10-16T08:56:22;20.50;99.90
27506;DHT22;14939;43.596;1.320;2022-10-16T08:58:48;20.50;99.90
27506;DHT22;14939;43.596;1.320;2022-10-16T09:01:16;20.60;99.90
27506;DHT22;14939;43.596;1.320;2022-10-16T09:12:15;20.70;99.90
27506;DHT22;14939;43.596;1.320;2022-10-16T09:22:39;20.90;99.90
27506;DHT22;14939;43.596;1.320;2022-10-16T09:25:21;21.00;99.90
27506;DHT22;14939;43.596;1.320;2022-10-16T09:27:55;21.10;99.90
27506;DHT22;14939;43.596;1.320;2022-10-16T09:30:22;21.10;99.90
27506;DHT22;14939;43.596;1.320;2022-10-16T09:32:50;21.10;99.90
27506;DHT22;14939;43.596;1.320;2022-10-16T09:35:31;21.20;99.90
27506;DHT22;14939;43.596;1.320;2022-10-16T09:37:57;21.30;99.90
27506;DHT22;14939;43.596;1.320;2022-10-16T09:46:00;21.30;99.90
27506;DHT22;14939;43.596;1.320;2022-10-16T09:48:31;21.40;99.90
27506;DHT22;14939;43.596;1.320;2022-10-16T09:51:01;21.50;99.90
27506;DHT22;14939;43.596;1.320;2022-10-16T09:53:45;21.60;99.90
27506;DHT22;14939;43.596;1.320;2022-10-16T09:56:22;21.70;99.90
27506;DHT22;14939;43.596;1.320;2022-10-16T09:58:52;21.80;99.90
27506;DHT22;14939;43.596;1.320;2022-10-16T10:01:19;21.80;99.90
27506;DHT22;14939;43.596;1.320;2022-10-16T10:03:45;21.80;99.90
27506;DHT22;14939;43.596;1.320;2022-10-16T10:12:20;21.90;99.90
27506;DHT22;14939;43.596;1.320;2022-10-16T10:14:48;22.10;99.90
27506;DHT22;14939;43.596;1.320;2022-10-16T10:17:23;22.20;99.90
27506;DHT22;14939;43.596;1.320;2022-10-16T10:19:52;22.20;99.90
27506;DHT22;14939;43.596;1.320;2022-10-16T10:30:25;22.30;99.30
27506;DHT22;14939;43.596;1.320;2022-10-16T10:35:45;22.40;98.30
27506;DHT22;14939;43.596;1.320;2022-10-16T10:38:36;22.50;98.00
27506;DHT22;14939;43.596;1.320;2022-10-16T10:54:49;22.80;96.10
27506;DHT22;14939;43.596;1.320;2022-10-16T10:57:21;22.90;95.50
27506;DHT22;14939;43.596;1.320;2022-10-16T11:02:41;23.00;94.80
27506;DHT22;14939;43.596;1.320;2022-10-16T11:08:00;23.20;93.80
27506;DHT22;14939;43.596;1.320;2022-10-16T11:13:45;23.30;93.00
27506;DHT22;14939;43.596;1.320;2022-10-16T11:16:27;23.30;92.60
27506;DHT22;14939;43.596;1.320;2022-10-16T11:21:34;23.50;93.00
27506;DHT22;14939;43.596;1.320;2022-10-16T11:25:11;23.50;92.90
27506;DHT22;14939;43.596;1.320;2022-10-16T11:27:19;23.60;93.20
27506;DHT22;14939;43.596;1.320;2022-10-16T11:29:55;23.60;92.50
27506;DHT22;14939;43.596;1.320;2022-10-16T11:32:28;23.70;92.40
27506;DHT22;14939;43.596;1.320;2022-10-16T11:34:59;23.60;92.00
27506;DHT22;14939;43.596;1.320;2022-10-16T11:37:33;23.80;91.60
27506;DHT22;14939;43.596;1.320;2022-10-16T11:40:26;24.00;90.10
27506;DHT22;14939;43.596;1.320;2022-10-16T11:43:04;24.00;87.70
27506;DHT22;14939;43.596;1.320;2022-10-16T11:45:38;24.00;87.70
27506;DHT22;14939;43.596;1.320;2022-10-16T11:54:10;24.50;86.10
27506;DHT22;14939;43.596;1.320;2022-10-16T11:56:41;24.60;83.00
27506;DHT22;14939;43.596;1.320;2022-10-16T11:59:21;24.60;82.90
27506;DHT22;14939;43.596;1.320;2022-10-16T12:04:32;24.40;83.40
27506;DHT22;14939;43.596;1.320;2022-10-16T12:07:08;24.40;83.50
27506;DHT22;14939;43.596;1.320;2022-10-16T12:09:38;24.50;83.20
27506;DHT22;14939;43.596;1.320;2022-10-16T12:12:04;24.50;82.90
27506;DHT22;14939;43.596;1.320;2022-10-16T12:14:36;24.60;82.90
27506;DHT22;14939;43.596;1.320;2022-10-16T12:17:22;24.60;83.30
27506;DHT22;14939;43.596;1.320;2022-10-16T12:22:59;24.60;84.30
27506;DHT22;14939;43.596;1.320;2022-10-16T12:25:32;24.50;83.30
27506;DHT22;14939;43.596;1.320;2022-10-16T12:30:41;24.70;80.70
27506;DHT22;14939;43.596;1.320;2022-10-16T12:33:26;24.80;78.70
27506;DHT22;14939;43.596;1.320;2022-10-16T12:35:53;24.80;79.20
27506;DHT22;14939;43.596;1.320;2022-10-16T12:38:46;25.00;78.20
27506;DHT22;14939;43.596;1.320;2022-10-16T12:41:08;25.10;76.70
27506;DHT22;14939;43.596;1.320;2022-10-16T12:43:42;25.20;75.20
27506;DHT22;14939;43.596;1.320;2022-10-16T12:48:35;25.00;75.40
27506;DHT22;14939;43.596;1.320;2022-10-16T12:51:12;25.00;74.50
27506;DHT22;14939;43.596;1.320;2022-10-16T12:53:38;25.00;73.10
27506;DHT22;14939;43.596;1.320;2022-10-16T12:56:16;24.90;73.80
27506;DHT22;14939;43.596;1.320;2022-10-16T13:01:41;25.00;71.90
27506;DHT22;14939;43.596;1.320;2022-10-16T13:09:51;25.30;71.60
27506;DHT22;14939;43.596;1.320;2022-10-16T13:20:31;25.50;71.70
27506;DHT22;14939;43.596;1.320;2022-10-16T13:23:23;25.40;72.70
27506;DHT22;14939;43.596;1.320;2022-10-16T13:26:09;25.30;72.70
27506;DHT22;14939;43.596;1.320;2022-10-16T13:28:37;25.10;72.20
27506;DHT22;14939;43.596;1.320;2022-10-16T13:31:04;25.00;72.30
27506;DHT22;14939;43.596;1.320;2022-10-16T13:35:57;25.10;72.70
27506;DHT22;14939;43.596;1.320;2022-10-16T13:38:25;25.00;72.80
27506;DHT22;14939;43.596;1.320;2022-10-16T13:41:02;25.10;72.70
27506;DHT22;14939;43.596;1.320;2022-10-16T13:46:02;25.10;70.80
27506;DHT22;14939;43.596;1.320;2022-10-16T13:48:30;25.00;70.70
27506;DHT22;14939;43.596;1.320;2022-10-16T13:51:04;25.10;72.00
27506;DHT22;14939;43.596;1.320;2022-10-16T13:53:33;25.00;71.70
27506;DHT22;14939;43.596;1.320;2022-10-16T13:55:59;25.10;70.70
27506;DHT22;14939;43.596;1.320;2022-10-16T13:58:25;25.00;71.80
27506;DHT22;14939;43.596;1.320;2022-10-16T14:01:19;25.00;72.10
27506;DHT22;14939;43.596;1.320;2022-10-16T14:03:46;24.90;72.60
27506;DHT22;14939;43.596;1.320;2022-10-16T14:06:14;24.90;72.70
27506;DHT22;14939;43.596;1.320;2022-10-16T14:08:47;24.80;71.90
27506;DHT22;14939;43.596;1.320;2022-10-16T14:11:23;24.80;72.70
27506;DHT22;14939;43.596;1.320;2022-10-16T14:13:50;24.80;73.40
27506;DHT22;14939;43.596;1.320;2022-10-16T14:16:36;24.80;73.10
27506;DHT22;14939;43.596;1.320;2022-10-16T14:19:06;24.90;73.20
27506;DHT22;14939;43.596;1.320;2022-10-16T14:21:40;24.80;73.30
27506;DHT22;14939;43.596;1.320;2022-10-16T14:24:14;24.80;73.90
27506;DHT22;14939;43.596;1.320;2022-10-16T14:26:47;24.80;75.00
27506;DHT22;14939;43.596;1.320;2022-10-16T14:29:18;24.90;75.00
27506;DHT22;14939;43.596;1.320;2022-10-16T14:31:59;24.80;75.00
27506;DHT22;14939;43.596;1.320;2022-10-16T14:34:36;24.80;76.70
27506;DHT22;14939;43.596;1.320;2022-10-16T14:37:09;24.70;77.30
27506;DHT22;14939;43.596;1.320;2022-10-16T14:39:39;24.60;78.00
27506;DHT22;14939;43.596;1.320;2022-10-16T14:42:14;24.50;78.60
27506;DHT22;14939;43.596;1.320;2022-10-16T14:44:40;24.40;79.20
27506;DHT22;14939;43.596;1.320;2022-10-16T14:47:13;24.30;80.10
27506;DHT22;14939;43.596;1.320;2022-10-16T14:49:41;24.20;81.40
27506;DHT22;14939;43.596;1.320;2022-10-16T14:52:12;24.20;82.20
27506;DHT22;14939;43.596;1.320;2022-10-16T14:54:38;24.30;82.20
27506;DHT22;14939;43.596;1.320;2022-10-16T14:57:04;24.30;82.00
27506;DHT22;14939;43.596;1.320;2022-10-16T14:59:31;24.30;81.40
27506;DHT22;14939;43.596;1.320;2022-10-16T15:01:57;24.30;81.10
27506;DHT22;14939;43.596;1.320;2022-10-16T15:04:23;24.30;82.30
27506;DHT22;14939;43.596;1.320;2022-10-16T15:06:49;24.40;81.30
27506;DHT22;14939;43.596;1.320;2022-10-16T15:09:15;24.50;80.80
27506;DHT22;14939;43.596;1.320;2022-10-16T15:11:41;24.70;81.20
27506;DHT22;14939;43.596;1.320;2022-10-16T15:14:11;24.70;80.80
27506;DHT22;14939;43.596;1.320;2022-10-16T15:16:38;24.80;80.90
27506;DHT22;14939;43.596;1.320;2022-10-16T15:19:03;24.80;81.20
27506;DHT22;14939;43.596;1.320;2022-10-16T15:21:31;24.80;81.10
27506;DHT22;14939;43.596;1.320;2022-10-16T15:23:58;24.80;81.40
27506;DHT22;14939;43.596;1.320;2022-10-16T15:26:29;24.70;81.00
27506;DHT22;14939;43.596;1.320;2022-10-16T15:28:54;24.80;81.00
27506;DHT22;14939;43.596;1.320;2022-10-16T15:31:20;25.00;80.40
27506;DHT22;14939;43.596;1.320;2022-10-16T15:33:50;25.00;80.80
27506;DHT22;14939;43.596;1.320;2022-10-16T15:36:28;25.20;79.30
27506;DHT22;14939;43.596;1.320;2022-10-16T15:38:54;25.20;78.30
27506;DHT22;14939;43.596;1.320;2022-10-16T15:41:20;25.30;78.40
27506;DHT22;14939;43.596;1.320;2022-10-16T15:43:48;25.30;78.40
27506;DHT22;14939;43.596;1.320;2022-10-16T15:46:15;25.30;78.50
27506;DHT22;14939;43.596;1.320;2022-10-16T15:48:42;25.20;78.40
27506;DHT22;14939;43.596;1.320;2022-10-16T15:51:08;25.20;78.60
27506;DHT22;14939;43.596;1.320;2022-10-16T15:53:35;25.20;79.30
27506;DHT22;14939;43.596;1.320;2022-10-16T15:56:04;25.40;78.10
27506;DHT22;14939;43.596;1.320;2022-10-16T15:58:31;25.80;76.60
27506;DHT22;14939;43.596;1.320;2022-10-16T16:00:57;26.20;74.20
27506;DHT22;14939;43.596;1.320;2022-10-16T16:03:25;26.30;73.80
27506;DHT22;14939;43.596;1.320;2022-10-16T16:05:51;26.20;73.70
27506;DHT22;14939;43.596;1.320;2022-10-16T16:08:17;26.20;75.00
27506;DHT22;14939;43.596;1.320;2022-10-16T16:10:43;26.20;73.90
27506;DHT22;14939;43.596;1.320;2022-10-16T16:13:08;26.20;73.20
27506;DHT22;14939;43.596;1.320;2022-10-16T16:15:34;26.10;73.40
27506;DHT22;14939;43.596;1.320;2022-10-16T16:17:59;26.00;74.20
27506;DHT22;14939;43.596;1.320;2022-10-16T16:20:27;25.80;75.50
27506;DHT22;14939;43.596;1.320;2022-10-16T16:22:53;25.40;77.00
27506;DHT22;14939;43.596;1.320;2022-10-16T16:25:19;24.90;79.30
27506;DHT22;14939;43.596;1.320;2022-10-16T16:27:44;24.70;81.20
27506;DHT22;14939;43.596;1.320;2022-10-16T16:30:11;24.60;81.80
27506;DHT22;14939;43.596;1.320;2022-10-16T16:32:37;24.60;81.80
27506;DHT22;14939;43.596;1.320;2022-10-16T16:35:03;24.70;81.80
27506;DHT22;14939;43.596;1.320;2022-10-16T16:37:30;24.20;83.90
27506;DHT22;14939;43.596;1.320;2022-10-16T16:39:56;23.80;86.50
27506;DHT22;14939;43.596;1.320;2022-10-16T16:42:25;23.50;88.60
27506;DHT22;14939;43.596;1.320;2022-10-16T16:44:51;23.30;90.20
27506;DHT22;14939;43.596;1.320;2022-10-16T16:47:16;23.00;91.10
27506;DHT22;14939;43.596;1.320;2022-10-16T16:49:42;22.80;92.00
27506;DHT22;14939;43.596;1.320;2022-10-16T16:52:08;22.60;92.80
27506;DHT22;14939;43.596;1.320;2022-10-16T16:54:33;22.50;93.40
27506;DHT22;14939;43.596;1.320;2022-10-16T16:56:59;22.40;93.90
27506;DHT22;14939;43.596;1.320;2022-10-16T16:59:25;22.20;94.60
27506;DHT22;14939;43.596;1.320;2022-10-16T17:01:51;22.10;95.20
27506;DHT22;14939;43.596;1.320;2022-10-16T17:04:16;22.00;95.80
27506;DHT22;14939;43.596;1.320;2022-10-16T17:06:42;21.90;96.30
27506;DHT22;14939;43.596;1.320;2022-10-16T17:09:09;21.80;96.90
27506;DHT22;14939;43.596;1.320;2022-10-16T17:11:35;21.70;97.40
27506;DHT22;14939;43.596;1.320;2022-10-16T17:14:01;21.60;97.80
27506;DHT22;14939;43.596;1.320;2022-10-16T17:16:30;21.50;98.10
27506;DHT22;14939;43.596;1.320;2022-10-16T17:19:02;21.40;98.50
27506;DHT22;14939;43.596;1.320;2022-10-16T17:21:28;21.30;98.90
27506;DHT22;14939;43.596;1.320;2022-10-16T17:23:56;21.30;99.20
27506;DHT22;14939;43.596;1.320;2022-10-16T17:26:22;21.20;99.60
27506;DHT22;14939;43.596;1.320;2022-10-16T17:28:51;21.20;99.90
27506;DHT22;14939;43.596;1.320;2022-10-16T17:31:23;21.20;99.90